Newville, West Virginia
Current Conditions -  °F | °C
As of 5:15 AM on Friday 24 Oct 2014 (Local Time) from KW22 Reporting Station
Haze Haze  
Wind Chill: 39°   Ceiling: 2600
Heat Index: 39°   Visibility: 2mi
Dew Point: 39°   Wind: 0mph
Humidity: 100%   Direction: NA
Pressure: 30.1"   Gusts: NA
Location:  38.6673°N, 80.6309°W
Report Text: KW22 240915Z AUTO 00000KT 2SM BR BKN026 04/04 A3010 RMK AO2
Loading
Personal Weather Stations






























Interactive Weather Map
Tropical Storm Tracking
New forecast layout! Learn more

10-Day Weather Forecast

Advertisements
Track Severe Weather on mobile